sensor_id;sensor_type;location;lat;lon;timestamp;pressure;altitude;pressure_sealevel;temperature;humidity
53041;BME280;39326;42.650;23.248;2022-12-07T00:00:50;92513.94;;;3.81;87.96
53041;BME280;39326;42.650;23.248;2022-12-07T00:03:15;92513.34;;;3.72;88.52
53041;BME280;39326;42.650;23.248;2022-12-07T00:05:40;92508.81;;;3.72;88.00
53041;BME280;39326;42.650;23.248;2022-12-07T00:08:06;92508.56;;;3.77;88.20
53041;BME280;39326;42.650;23.248;2022-12-07T00:10:33;92501.19;;;3.83;87.80
53041;BME280;39326;42.650;23.248;2022-12-07T00:12:59;92502.72;;;3.68;88.19
53041;BME280;39326;42.650;23.248;2022-12-07T00:15:24;92495.97;;;3.39;89.77
53041;BME280;39326;42.650;23.248;2022-12-07T00:17:50;92495.66;;;3.56;89.17
53041;BME280;39326;42.650;23.248;2022-12-07T00:20:15;92503.31;;;3.61;88.74
53041;BME280;39326;42.650;23.248;2022-12-07T00:22:40;92502.88;;;3.59;89.13
53041;BME280;39326;42.650;23.248;2022-12-07T00:25:06;92507.31;;;3.55;89.52
53041;BME280;39326;42.650;23.248;2022-12-07T00:27:31;92511.63;;;3.64;89.09
53041;BME280;39326;42.650;23.248;2022-12-07T00:29:57;92508.75;;;3.69;88.62
53041;BME280;39326;42.650;23.248;2022-12-07T00:32:22;92505.78;;;3.70;88.44
53041;BME280;39326;42.650;23.248;2022-12-07T00:34:48;92500.91;;;3.72;87.77
53041;BME280;39326;42.650;23.248;2022-12-07T00:37:13;92490.31;;;3.69;88.40
53041;BME280;39326;42.650;23.248;2022-12-07T00:39:38;92496.75;;;3.71;88.49
53041;BME280;39326;42.650;23.248;2022-12-07T00:42:04;92503.13;;;3.70;88.38
53041;BME280;39326;42.650;23.248;2022-12-07T00:44:29;92508.59;;;3.61;89.37
53041;BME280;39326;42.650;23.248;2022-12-07T00:46:55;92507.97;;;3.52;89.52
53041;BME280;39326;42.650;23.248;2022-12-07T00:49:21;92510.59;;;3.52;90.17
53041;BME280;39326;42.650;23.248;2022-12-07T00:51:48;92496.59;;;3.64;88.99
53041;BME280;39326;42.650;23.248;2022-12-07T00:54:13;92500.16;;;3.72;88.73
53041;BME280;39326;42.650;23.248;2022-12-07T00:56:39;92498.38;;;3.76;88.98
53041;BME280;39326;42.650;23.248;2022-12-07T00:59:04;92500.13;;;3.40;89.77
53041;BME280;39326;42.650;23.248;2022-12-07T01:01:35;92507.47;;;3.63;89.90
53041;BME280;39326;42.650;23.248;2022-12-07T01:04:02;92506.13;;;3.69;88.84
53041;BME280;39326;42.650;23.248;2022-12-07T01:06:29;92502.63;;;3.65;89.36
53041;BME280;39326;42.650;23.248;2022-12-07T01:08:55;92495.81;;;3.79;88.53
53041;BME280;39326;42.650;23.248;2022-12-07T01:11:22;92500.81;;;3.84;87.84
53041;BME280;39326;42.650;23.248;2022-12-07T01:13:50;92491.31;;;3.80;88.03
53041;BME280;39326;42.650;23.248;2022-12-07T01:16:16;92488.75;;;3.83;88.20
53041;BME280;39326;42.650;23.248;2022-12-07T01:18:46;92487.13;;;3.79;88.46
53041;BME280;39326;42.650;23.248;2022-12-07T01:21:16;92491.22;;;3.76;88.51
53041;BME280;39326;42.650;23.248;2022-12-07T01:23:42;92483.81;;;3.82;88.56
53041;BME280;39326;42.650;23.248;2022-12-07T01:26:11;92481.28;;;3.70;89.04
53041;BME280;39326;42.650;23.248;2022-12-07T01:28:37;92480.16;;;3.71;89.01
53041;BME280;39326;42.650;23.248;2022-12-07T01:31:06;92478.03;;;3.76;88.31
53041;BME280;39326;42.650;23.248;2022-12-07T01:33:34;92464.84;;;3.76;88.31
53041;BME280;39326;42.650;23.248;2022-12-07T01:38:46;92476.94;;;3.61;88.19
53041;BME280;39326;42.650;23.248;2022-12-07T01:41:13;92485.94;;;3.60;88.55
53041;BME280;39326;42.650;23.248;2022-12-07T01:44:11;92478.22;;;3.68;88.26
53041;BME280;39326;42.650;23.248;2022-12-07T01:46:39;92482.81;;;3.71;88.30
53041;BME280;39326;42.650;23.248;2022-12-07T01:49:11;92472.19;;;3.67;88.94
53041;BME280;39326;42.650;23.248;2022-12-07T01:51:40;92476.41;;;3.72;88.54
53041;BME280;39326;42.650;23.248;2022-12-07T01:54:08;92475.31;;;3.73;88.10
53041;BME280;39326;42.650;23.248;2022-12-07T01:56:35;92472.00;;;3.76;87.98
53041;BME280;39326;42.650;23.248;2022-12-07T01:59:02;92465.97;;;3.75;88.03
53041;BME280;39326;42.650;23.248;2022-12-07T02:01:28;92462.91;;;3.57;88.60
53041;BME280;39326;42.650;23.248;2022-12-07T02:03:53;92459.56;;;3.29;90.40
53041;BME280;39326;42.650;23.248;2022-12-07T02:06:22;92455.16;;;3.33;90.38
53041;BME280;39326;42.650;23.248;2022-12-07T02:08:48;92456.91;;;3.13;91.81
53041;BME280;39326;42.650;23.248;2022-12-07T02:11:14;92456.59;;;3.30;91.41
53041;BME280;39326;42.650;23.248;2022-12-07T02:13:42;92461.97;;;3.50;89.86
53041;BME280;39326;42.650;23.248;2022-12-07T02:24:53;92458.22;;;3.67;88.60
53041;BME280;39326;42.650;23.248;2022-12-07T02:32:44;92447.09;;;3.57;88.25
53041;BME280;39326;42.650;23.248;2022-12-07T02:35:17;92464.50;;;3.30;89.29
53041;BME280;39326;42.650;23.248;2022-12-07T02:40:21;92458.69;;;3.09;91.69
53041;BME280;39326;42.650;23.248;2022-12-07T02:42:55;92463.59;;;3.39;89.59
53041;BME280;39326;42.650;23.248;2022-12-07T02:45:25;92456.84;;;3.41;89.47
53041;BME280;39326;42.650;23.248;2022-12-07T02:47:55;92449.38;;;3.43;89.31
53041;BME280;39326;42.650;23.248;2022-12-07T02:50:21;92439.59;;;3.44;88.58
53041;BME280;39326;42.650;23.248;2022-12-07T02:52:47;92440.03;;;3.46;89.04
53041;BME280;39326;42.650;23.248;2022-12-07T02:55:15;92430.34;;;3.50;88.23
53041;BME280;39326;42.650;23.248;2022-12-07T03:00:21;92427.59;;;3.46;88.58
53041;BME280;39326;42.650;23.248;2022-12-07T03:02:53;92430.09;;;3.23;88.38
53041;BME280;39326;42.650;23.248;2022-12-07T03:05:46;92430.00;;;3.20;88.93
53041;BME280;39326;42.650;23.248;2022-12-07T03:08:23;92418.19;;;3.29;89.05
53041;BME280;39326;42.650;23.248;2022-12-07T03:10:56;92422.34;;;3.30;88.73
53041;BME280;39326;42.650;23.248;2022-12-07T03:16:12;92413.94;;;3.25;88.20
53041;BME280;39326;42.650;23.248;2022-12-07T03:21:23;92432.91;;;3.30;87.63
53041;BME280;39326;42.650;23.248;2022-12-07T03:23:56;92426.84;;;3.30;87.57
53041;BME280;39326;42.650;23.248;2022-12-07T03:26:30;92435.19;;;3.32;87.43
53041;BME280;39326;42.650;23.248;2022-12-07T03:28:59;92431.03;;;3.31;88.05
53041;BME280;39326;42.650;23.248;2022-12-07T03:31:29;92438.69;;;3.36;87.73
53041;BME280;39326;42.650;23.248;2022-12-07T03:34:21;92440.63;;;3.23;87.74
53041;BME280;39326;42.650;23.248;2022-12-07T03:36:54;92436.19;;;3.12;88.89
53041;BME280;39326;42.650;23.248;2022-12-07T03:41:56;92431.63;;;3.24;88.80
53041;BME280;39326;42.650;23.248;2022-12-07T03:44:23;92424.13;;;3.26;88.18
53041;BME280;39326;42.650;23.248;2022-12-07T03:52:34;92423.94;;;3.35;87.89
53041;BME280;39326;42.650;23.248;2022-12-07T03:57:35;92423.69;;;3.40;87.92
53041;BME280;39326;42.650;23.248;2022-12-07T04:00:04;92426.78;;;3.42;87.67
53041;BME280;39326;42.650;23.248;2022-12-07T04:02:31;92415.03;;;3.40;87.71
53041;BME280;39326;42.650;23.248;2022-12-07T04:04:57;92416.06;;;3.19;88.32
53041;BME280;39326;42.650;23.248;2022-12-07T04:07:22;92406.19;;;3.32;88.14
53041;BME280;39326;42.650;23.248;2022-12-07T04:09:48;92408.94;;;3.36;88.22
53041;BME280;39326;42.650;23.248;2022-12-07T04:12:13;92408.81;;;3.32;87.96
53041;BME280;39326;42.650;23.248;2022-12-07T04:14:39;92421.84;;;3.25;88.07
53041;BME280;39326;42.650;23.248;2022-12-07T04:17:04;92423.03;;;3.12;88.73
53041;BME280;39326;42.650;23.248;2022-12-07T04:19:33;92428.22;;;3.24;88.12
53041;BME280;39326;42.650;23.248;2022-12-07T04:22:00;92425.22;;;3.25;87.94
53041;BME280;39326;42.650;23.248;2022-12-07T04:24:26;92419.88;;;3.22;88.48
53041;BME280;39326;42.650;23.248;2022-12-07T04:26:52;92427.72;;;2.90;89.63
53041;BME280;39326;42.650;23.248;2022-12-07T04:29:18;92426.38;;;2.96;89.16
53041;BME280;39326;42.650;23.248;2022-12-07T04:31:44;92427.44;;;3.07;89.35
53041;BME280;39326;42.650;23.248;2022-12-07T04:34:10;92422.34;;;3.15;88.97
53041;BME280;39326;42.650;23.248;2022-12-07T04:36:37;92430.81;;;3.08;89.18
53041;BME280;39326;42.650;23.248;2022-12-07T04:39:04;92425.66;;;3.12;88.96
53041;BME280;39326;42.650;23.248;2022-12-07T04:41:30;92427.44;;;3.23;88.65
53041;BME280;39326;42.650;23.248;2022-12-07T04:43:57;92425.81;;;3.19;88.08
53041;BME280;39326;42.650;23.248;2022-12-07T04:46:24;92426.94;;;3.18;88.41
53041;BME280;39326;42.650;23.248;2022-12-07T04:48:50;92427.00;;;3.21;88.67
53041;BME280;39326;42.650;23.248;2022-12-07T04:51:21;92425.91;;;3.22;87.55
53041;BME280;39326;42.650;23.248;2022-12-07T04:53:46;92423.53;;;3.17;87.52
53041;BME280;39326;42.650;23.248;2022-12-07T04:56:12;92423.09;;;3.15;87.62
53041;BME280;39326;42.650;23.248;2022-12-07T04:58:38;92422.34;;;3.15;87.63
53041;BME280;39326;42.650;23.248;2022-12-07T05:01:03;92423.09;;;3.15;87.95
53041;BME280;39326;42.650;23.248;2022-12-07T05:03:29;92425.81;;;3.19;88.00
53041;BME280;39326;42.650;23.248;2022-12-07T05:05:54;92425.81;;;3.19;87.90
53041;BME280;39326;42.650;23.248;2022-12-07T05:08:19;92434.75;;;3.14;88.57
53041;BME280;39326;42.650;23.248;2022-12-07T05:10:45;92440.00;;;2.98;89.27
53041;BME280;39326;42.650;23.248;2022-12-07T05:13:10;92447.31;;;3.05;89.70
53041;BME280;39326;42.650;23.248;2022-12-07T05:15:36;92441.97;;;3.17;88.97
53041;BME280;39326;42.650;23.248;2022-12-07T05:18:01;92441.63;;;3.19;88.89
53041;BME280;39326;42.650;23.248;2022-12-07T05:20:28;92439.66;;;3.16;89.08
53041;BME280;39326;42.650;23.248;2022-12-07T05:22:53;92435.25;;;3.04;90.36
53041;BME280;39326;42.650;23.248;2022-12-07T05:25:19;92429.06;;;3.12;89.55
53041;BME280;39326;42.650;23.248;2022-12-07T05:27:44;92430.56;;;3.13;89.08
53041;BME280;39326;42.650;23.248;2022-12-07T05:30:10;92432.28;;;3.05;90.25
53041;BME280;39326;42.650;23.248;2022-12-07T05:32:35;92429.88;;;3.00;90.31
53041;BME280;39326;42.650;23.248;2022-12-07T05:35:01;92421.97;;;3.16;89.91
53041;BME280;39326;42.650;23.248;2022-12-07T05:37:26;92410.38;;;3.17;89.78
53041;BME280;39326;42.650;23.248;2022-12-07T05:39:51;92422.34;;;3.15;89.37
53041;BME280;39326;42.650;23.248;2022-12-07T05:42:17;92421.44;;;2.79;91.25
53041;BME280;39326;42.650;23.248;2022-12-07T05:44:44;92407.28;;;2.99;90.50
53041;BME280;39326;42.650;23.248;2022-12-07T05:47:12;92402.25;;;3.10;89.58
53041;BME280;39326;42.650;23.248;2022-12-07T05:49:37;92411.97;;;3.22;89.32
53041;BME280;39326;42.650;23.248;2022-12-07T05:52:03;92418.44;;;3.24;88.77
53041;BME280;39326;42.650;23.248;2022-12-07T05:54:29;92421.59;;;3.30;88.30
53041;BME280;39326;42.650;23.248;2022-12-07T05:56:54;92407.97;;;3.28;88.55
53041;BME280;39326;42.650;23.248;2022-12-07T05:59:20;92411.38;;;3.28;88.92
53041;BME280;39326;42.650;23.248;2022-12-07T06:01:54;92408.72;;;3.28;89.05
53041;BME280;39326;42.650;23.248;2022-12-07T06:04:21;92408.31;;;3.26;89.04
53041;BME280;39326;42.650;23.248;2022-12-07T06:06:47;92407.13;;;3.24;88.77
53041;BME280;39326;42.650;23.248;2022-12-07T06:09:14;92409.84;;;3.27;88.81
53041;BME280;39326;42.650;23.248;2022-12-07T06:11:42;92420.38;;;3.27;88.99
53041;BME280;39326;42.650;23.248;2022-12-07T06:14:26;92416.22;;;3.26;89.72
53041;BME280;39326;42.650;23.248;2022-12-07T06:16:52;92421.75;;;3.37;89.24
53041;BME280;39326;42.650;23.248;2022-12-07T06:19:17;92425.91;;;3.38;89.44
53041;BME280;39326;42.650;23.248;2022-12-07T06:21:43;92426.16;;;3.33;88.95
53041;BME280;39326;42.650;23.248;2022-12-07T06:24:12;92437.63;;;3.41;89.25
53041;BME280;39326;42.650;23.248;2022-12-07T06:26:38;92430.94;;;3.43;89.55
53041;BME280;39326;42.650;23.248;2022-12-07T06:29:03;92431.28;;;3.42;89.63
53041;BME280;39326;42.650;23.248;2022-12-07T06:31:28;92436.03;;;3.52;89.35
53041;BME280;39326;42.650;23.248;2022-12-07T06:34:01;92439.00;;;3.50;89.14
53041;BME280;39326;42.650;23.248;2022-12-07T06:36:26;92433.41;;;3.36;89.85
53041;BME280;39326;42.650;23.248;2022-12-07T06:38:55;92434.25;;;3.40;90.11
53041;BME280;39326;42.650;23.248;2022-12-07T06:41:21;92438.25;;;3.50;90.19
53041;BME280;39326;42.650;23.248;2022-12-07T06:43:47;92430.50;;;3.41;90.81
53041;BME280;39326;42.650;23.248;2022-12-07T06:46:13;92443.59;;;3.53;90.50
53041;BME280;39326;42.650;23.248;2022-12-07T06:48:39;92438.47;;;3.60;89.70
53041;BME280;39326;42.650;23.248;2022-12-07T06:51:04;92434.75;;;3.61;90.26
53041;BME280;39326;42.650;23.248;2022-12-07T06:53:30;92436.56;;;3.42;90.74
53041;BME280;39326;42.650;23.248;2022-12-07T06:55:55;92444.19;;;3.31;91.56
53041;BME280;39326;42.650;23.248;2022-12-07T06:58:21;92445.13;;;3.23;91.86
53041;BME280;39326;42.650;23.248;2022-12-07T07:00:48;92456.44;;;3.23;91.90
53041;BME280;39326;42.650;23.248;2022-12-07T07:03:14;92445.22;;;3.26;92.22
53041;BME280;39326;42.650;23.248;2022-12-07T07:05:39;92447.09;;;3.42;90.98
53041;BME280;39326;42.650;23.248;2022-12-07T07:08:05;92440.44;;;3.48;90.81
53041;BME280;39326;42.650;23.248;2022-12-07T07:10:30;92439.88;;;3.54;90.50
53041;BME280;39326;42.650;23.248;2022-12-07T07:12:56;92437.13;;;3.35;91.77
53041;BME280;39326;42.650;23.248;2022-12-07T07:15:21;92434.34;;;3.44;91.43
53041;BME280;39326;42.650;23.248;2022-12-07T07:17:47;92444.28;;;3.34;92.22
53041;BME280;39326;42.650;23.248;2022-12-07T07:20:12;92444.78;;;3.40;92.06
53041;BME280;39326;42.650;23.248;2022-12-07T07:22:38;92442.22;;;3.59;90.75
53041;BME280;39326;42.650;23.248;2022-12-07T07:25:03;92445.22;;;3.58;90.23
53041;BME280;39326;42.650;23.248;2022-12-07T07:27:29;92460.59;;;3.40;91.21
53041;BME280;39326;42.650;23.248;2022-12-07T07:29:54;92450.31;;;3.35;91.75
53041;BME280;39326;42.650;23.248;2022-12-07T07:32:20;92451.19;;;3.55;91.54
53041;BME280;39326;42.650;23.248;2022-12-07T07:34:46;92451.00;;;3.64;91.17
53041;BME280;39326;42.650;23.248;2022-12-07T07:37:12;92451.09;;;3.67;91.24
53041;BME280;39326;42.650;23.248;2022-12-07T07:39:38;92449.03;;;3.76;90.51
53041;BME280;39326;42.650;23.248;2022-12-07T07:42:04;92437.72;;;3.76;90.77
53041;BME280;39326;42.650;23.248;2022-12-07T07:44:29;92442.91;;;3.88;90.16
53041;BME280;39326;42.650;23.248;2022-12-07T07:46:55;92451.06;;;3.83;90.26
53041;BME280;39326;42.650;23.248;2022-12-07T07:49:20;92457.09;;;3.83;90.81
53041;BME280;39326;42.650;23.248;2022-12-07T07:51:45;92456.34;;;3.83;91.05
53041;BME280;39326;42.650;23.248;2022-12-07T07:54:11;92453.97;;;3.78;91.04
53041;BME280;39326;42.650;23.248;2022-12-07T07:56:36;92456.38;;;3.67;91.87
53041;BME280;39326;42.650;23.248;2022-12-07T07:59:02;92451.47;;;3.85;91.29
53041;BME280;39326;42.650;23.248;2022-12-07T08:01:27;92450.50;;;3.74;91.11
53041;BME280;39326;42.650;23.248;2022-12-07T08:03:52;92444.06;;;3.91;90.26
53041;BME280;39326;42.650;23.248;2022-12-07T08:06:18;92451.41;;;3.81;90.54
53041;BME280;39326;42.650;23.248;2022-12-07T08:08:43;92443.81;;;3.96;90.35
53041;BME280;39326;42.650;23.248;2022-12-07T08:11:09;92436.41;;;3.85;91.01
53041;BME280;39326;42.650;23.248;2022-12-07T08:13:35;92445.13;;;3.70;90.75
53041;BME280;39326;42.650;23.248;2022-12-07T08:16:05;92442.28;;;3.79;90.97
53041;BME280;39326;42.650;23.248;2022-12-07T08:18:38;92434.72;;;3.93;90.73
53041;BME280;39326;42.650;23.248;2022-12-07T08:21:05;92448.63;;;3.58;91.54
53041;BME280;39326;42.650;23.248;2022-12-07T08:23:30;92445.47;;;3.69;91.50
53041;BME280;39326;42.650;23.248;2022-12-07T08:26:00;92438.38;;;3.88;90.85
53041;BME280;39326;42.650;23.248;2022-12-07T08:28:27;92447.91;;;3.93;90.52
53041;BME280;39326;42.650;23.248;2022-12-07T08:30:52;92443.06;;;3.95;90.57
53041;BME280;39326;42.650;23.248;2022-12-07T08:33:23;92452.31;;;4.05;90.37
53041;BME280;39326;42.650;23.248;2022-12-07T08:35:48;92444.72;;;4.03;90.69
53041;BME280;39326;42.650;23.248;2022-12-07T08:38:14;92444.78;;;3.87;91.21
53041;BME280;39326;42.650;23.248;2022-12-07T08:40:39;92442.03;;;3.84;90.84
53041;BME280;39326;42.650;23.248;2022-12-07T08:43:05;92442.94;;;4.07;90.39
53041;BME280;39326;42.650;23.248;2022-12-07T08:45:31;92447.28;;;4.15;90.10
53041;BME280;39326;42.650;23.248;2022-12-07T08:48:04;92441.47;;;4.26;90.25
53041;BME280;39326;42.650;23.248;2022-12-07T08:50:32;92425.22;;;4.08;90.23
53041;BME280;39326;42.650;23.248;2022-12-07T08:52:59;92441.81;;;4.08;90.84
53041;BME280;39326;42.650;23.248;2022-12-07T08:55:25;92439.19;;;4.24;90.67
53041;BME280;39326;42.650;23.248;2022-12-07T08:57:52;92435.81;;;4.43;90.05
53041;BME280;39326;42.650;23.248;2022-12-07T09:00:18;92432.03;;;4.25;90.38
53041;BME280;39326;42.650;23.248;2022-12-07T09:02:44;92431.78;;;4.49;90.15
53041;BME280;39326;42.650;23.248;2022-12-07T09:05:11;92419.22;;;4.62;89.79
53041;BME280;39326;42.650;23.248;2022-12-07T09:07:36;92420.88;;;4.51;90.05
53041;BME280;39326;42.650;23.248;2022-12-07T09:10:03;92416.06;;;4.56;90.27
53041;BME280;39326;42.650;23.248;2022-12-07T09:12:29;92412.31;;;4.77;89.36
53041;BME280;39326;42.650;23.248;2022-12-07T09:14:54;92413.56;;;4.83;89.37
53041;BME280;39326;42.650;23.248;2022-12-07T09:17:20;92409.22;;;4.94;89.14
53041;BME280;39326;42.650;23.248;2022-12-07T09:19:45;92410.53;;;5.04;88.95
53041;BME280;39326;42.650;23.248;2022-12-07T09:22:10;92411.94;;;4.98;89.49
53041;BME280;39326;42.650;23.248;2022-12-07T09:24:36;92413.38;;;5.37;89.92
53041;BME280;39326;42.650;23.248;2022-12-07T09:27:01;92413.72;;;5.59;89.19
53041;BME280;39326;42.650;23.248;2022-12-07T09:29:27;92408.69;;;5.50;88.42
53041;BME280;39326;42.650;23.248;2022-12-07T09:31:52;92397.78;;;5.55;87.62
53041;BME280;39326;42.650;23.248;2022-12-07T09:34:18;92401.84;;;5.49;87.87
53041;BME280;39326;42.650;23.248;2022-12-07T09:36:45;92383.19;;;5.38;88.06
53041;BME280;39326;42.650;23.248;2022-12-07T09:39:10;92390.50;;;5.48;87.49
53041;BME280;39326;42.650;23.248;2022-12-07T09:41:43;92385.53;;;5.70;86.74
53041;BME280;39326;42.650;23.248;2022-12-07T09:44:12;92380.47;;;5.84;86.04
53041;BME280;39326;42.650;23.248;2022-12-07T09:46:42;92384.38;;;5.94;85.59
53041;BME280;39326;42.650;23.248;2022-12-07T09:49:18;92388.59;;;5.72;85.85
53041;BME280;39326;42.650;23.248;2022-12-07T09:51:44;92381.56;;;5.83;86.24
53041;BME280;39326;42.650;23.248;2022-12-07T09:54:14;92374.00;;;5.82;85.75
53041;BME280;39326;42.650;23.248;2022-12-07T09:56:41;92381.22;;;5.85;86.20
53041;BME280;39326;42.650;23.248;2022-12-07T09:59:14;92380.91;;;5.90;86.56
53041;BME280;39326;42.650;23.248;2022-12-07T10:01:41;92371.72;;;6.10;85.90
53041;BME280;39326;42.650;23.248;2022-12-07T10:04:15;92370.00;;;6.21;85.65
53041;BME280;39326;42.650;23.248;2022-12-07T10:06:42;92366.53;;;6.17;84.69
53041;BME280;39326;42.650;23.248;2022-12-07T10:09:16;92372.72;;;6.28;84.41
53041;BME280;39326;42.650;23.248;2022-12-07T10:12:17;92369.81;;;6.37;84.39
53041;BME280;39326;42.650;23.248;2022-12-07T10:15:03;92355.47;;;6.42;84.21
53041;BME280;39326;42.650;23.248;2022-12-07T10:17:37;92359.00;;;6.19;84.34
53041;BME280;39326;42.650;23.248;2022-12-07T10:20:15;92356.53;;;6.03;85.91
53041;BME280;39326;42.650;23.248;2022-12-07T10:22:56;92360.69;;;6.35;84.45
53041;BME280;39326;42.650;23.248;2022-12-07T10:25:24;92346.25;;;6.58;84.54
53041;BME280;39326;42.650;23.248;2022-12-07T10:28:17;92343.38;;;6.74;83.23
53041;BME280;39326;42.650;23.248;2022-12-07T10:30:54;92338.81;;;6.71;83.41
53041;BME280;39326;42.650;23.248;2022-12-07T10:33:40;92332.91;;;6.55;83.08
53041;BME280;39326;42.650;23.248;2022-12-07T10:39:03;92327.59;;;6.51;84.20
53041;BME280;39326;42.650;23.248;2022-12-07T10:41:35;92325.63;;;6.78;83.96
53041;BME280;39326;42.650;23.248;2022-12-07T10:44:01;92315.97;;;6.97;83.63
53041;BME280;39326;42.650;23.248;2022-12-07T10:46:57;92323.28;;;7.10;83.08
53041;BME280;39326;42.650;23.248;2022-12-07T10:55:11;92322.34;;;6.92;83.69
53041;BME280;39326;42.650;23.248;2022-12-07T11:00:19;92304.53;;;7.33;81.54
53041;BME280;39326;42.650;23.248;2022-12-07T11:05:41;92294.03;;;7.51;81.51
53041;BME280;39326;42.650;23.248;2022-12-07T11:11:02;92291.56;;;7.87;79.46
53041;BME280;39326;42.650;23.248;2022-12-07T11:13:40;92292.75;;;7.89;79.89
53041;BME280;39326;42.650;23.248;2022-12-07T11:16:19;92292.78;;;8.00;77.46
53041;BME280;39326;42.650;23.248;2022-12-07T11:19:14;92293.81;;;7.78;77.72
53041;BME280;39326;42.650;23.248;2022-12-07T11:22:09;92284.47;;;8.02;77.46
53041;BME280;39326;42.650;23.248;2022-12-07T11:27:44;92272.19;;;8.73;76.69
53041;BME280;39326;42.650;23.248;2022-12-07T11:30:19;92274.13;;;8.98;74.93
53041;BME280;39326;42.650;23.248;2022-12-07T11:33:22;92269.94;;;9.29;74.80
53041;BME280;39326;42.650;23.248;2022-12-07T11:38:55;92265.66;;;10.06;68.99
53041;BME280;39326;42.650;23.248;2022-12-07T11:41:41;92259.06;;;10.36;68.99
53041;BME280;39326;42.650;23.248;2022-12-07T11:47:16;92261.59;;;10.65;67.14
53041;BME280;39326;42.650;23.248;2022-12-07T11:49:53;92253.09;;;10.84;65.29
53041;BME280;39326;42.650;23.248;2022-12-07T11:54:49;92254.56;;;10.88;64.78
53041;BME280;39326;42.650;23.248;2022-12-07T11:57:31;92253.81;;;10.88;63.28
53041;BME280;39326;42.650;23.248;2022-12-07T12:00:01;92256.31;;;11.16;63.01
53041;BME280;39326;42.650;23.248;2022-12-07T12:05:20;92252.78;;;11.27;62.31
53041;BME280;39326;42.650;23.248;2022-12-07T12:07:50;92241.16;;;11.51;61.95
53041;BME280;39326;42.650;23.248;2022-12-07T12:10:36;92233.53;;;11.91;60.44
53041;BME280;39326;42.650;23.248;2022-12-07T12:13:18;92228.50;;;12.27;58.63
53041;BME280;39326;42.650;23.248;2022-12-07T12:21:33;92217.84;;;11.93;59.16
53041;BME280;39326;42.650;23.248;2022-12-07T12:24:04;92216.00;;;11.49;59.32
53041;BME280;39326;42.650;23.248;2022-12-07T12:26:35;92224.78;;;11.87;58.99
53041;BME280;39326;42.650;23.248;2022-12-07T12:29:16;92214.00;;;11.97;57.42
53041;BME280;39326;42.650;23.248;2022-12-07T12:31:48;92208.34;;;11.54;58.56
53041;BME280;39326;42.650;23.248;2022-12-07T12:45:26;92193.03;;;10.58;61.72
53041;BME280;39326;42.650;23.248;2022-12-07T12:47:53;92194.81;;;10.79;61.74
53041;BME280;39326;42.650;23.248;2022-12-07T12:50:20;92197.09;;;10.84;61.12
53041;BME280;39326;42.650;23.248;2022-12-07T12:55:17;92202.59;;;10.55;62.27
53041;BME280;39326;42.650;23.248;2022-12-07T12:57:46;92206.38;;;10.61;61.70
53041;BME280;39326;42.650;23.248;2022-12-07T13:02:54;92206.84;;;11.01;59.31
53041;BME280;39326;42.650;23.248;2022-12-07T13:05:23;92208.13;;;10.82;60.72
53041;BME280;39326;42.650;23.248;2022-12-07T13:07:53;92206.19;;;10.90;59.95
53041;BME280;39326;42.650;23.248;2022-12-07T13:13:03;92209.84;;;11.07;60.06
53041;BME280;39326;42.650;23.248;2022-12-07T13:15:43;92205.72;;;11.02;59.49
53041;BME280;39326;42.650;23.248;2022-12-07T13:29:16;92204.25;;;10.35;62.08
53041;BME280;39326;42.650;23.248;2022-12-07T13:31:55;92203.84;;;10.33;61.53
53041;BME280;39326;42.650;23.248;2022-12-07T13:34:36;92204.41;;;9.92;62.03
53041;BME280;39326;42.650;23.248;2022-12-07T13:37:10;92199.06;;;9.92;62.80
53041;BME280;39326;42.650;23.248;2022-12-07T13:39:48;92199.59;;;9.41;64.91
53041;BME280;39326;42.650;23.248;2022-12-07T13:42:34;92191.97;;;9.53;65.00
53041;BME280;39326;42.650;23.248;2022-12-07T13:45:16;92183.69;;;9.09;67.06
53041;BME280;39326;42.650;23.248;2022-12-07T13:47:53;92185.19;;;9.27;66.37
53041;BME280;39326;42.650;23.248;2022-12-07T13:50:30;92187.06;;;9.41;65.60
53041;BME280;39326;42.650;23.248;2022-12-07T13:53:00;92187.84;;;9.06;67.02
53041;BME280;39326;42.650;23.248;2022-12-07T13:55:27;92189.75;;;9.06;66.66
53041;BME280;39326;42.650;23.248;2022-12-07T13:57:54;92183.28;;;9.17;66.47
53041;BME280;39326;42.650;23.248;2022-12-07T14:00:21;92175.69;;;9.19;66.22
53041;BME280;39326;42.650;23.248;2022-12-07T14:02:58;92194.34;;;8.91;66.87
53041;BME280;39326;42.650;23.248;2022-12-07T14:05:31;92190.53;;;8.85;67.23
53041;BME280;39326;42.650;23.248;2022-12-07T14:07:58;92192.44;;;8.98;66.47
53041;BME280;39326;42.650;23.248;2022-12-07T14:12:55;92198.13;;;9.04;66.09
53041;BME280;39326;42.650;23.248;2022-12-07T14:15:23;92196.59;;;8.85;66.58
53041;BME280;39326;42.650;23.248;2022-12-07T14:17:50;92208.38;;;8.91;66.06
53041;BME280;39326;42.650;23.248;2022-12-07T14:20:52;92195.09;;;8.66;67.77
53041;BME280;39326;42.650;23.248;2022-12-07T14:23:27;92206.84;;;8.62;67.11
53041;BME280;39326;42.650;23.248;2022-12-07T14:25:53;92206.84;;;8.62;67.09
53041;BME280;39326;42.650;23.248;2022-12-07T14:28:30;92210.25;;;8.52;67.40
53041;BME280;39326;42.650;23.248;2022-12-07T14:30:56;92211.38;;;8.51;67.30
53041;BME280;39326;42.650;23.248;2022-12-07T14:33:22;92210.22;;;8.41;67.59
53041;BME280;39326;42.650;23.248;2022-12-07T14:35:48;92207.53;;;8.27;67.31
53041;BME280;39326;42.650;23.248;2022-12-07T14:38:14;92213.97;;;8.26;67.20
53041;BME280;39326;42.650;23.248;2022-12-07T14:40:40;92207.13;;;8.14;67.18
53041;BME280;39326;42.650;23.248;2022-12-07T14:43:10;92208.59;;;8.01;67.91
53041;BME280;39326;42.650;23.248;2022-12-07T14:45:36;92207.81;;;7.97;67.94
53041;BME280;39326;42.650;23.248;2022-12-07T14:48:02;92204.41;;;7.96;68.07
53041;BME280;39326;42.650;23.248;2022-12-07T14:50:28;92196.75;;;7.87;68.20
53041;BME280;39326;42.650;23.248;2022-12-07T14:53:00;92205.47;;;7.77;68.69
53041;BME280;39326;42.650;23.248;2022-12-07T14:55:27;92204.28;;;7.68;69.51
53041;BME280;39326;42.650;23.248;2022-12-07T14:57:53;92209.53;;;7.57;69.80